Terminal Aerodrome Forecast
Issued by NWS Des Moines, IA

Home | Current Version | Previous Version | Text Only | Print | Product List | Glossary On
Versions: 1 2 3 4 5 6 7 8 9 10 11 12 13 14 15 16 17 18 19 20 21 22 23 24 25 26 27 28 29 30 31 32 33 34 35 36 37 38 39 40 41 42 43 44 45 46 47 48 49 50
000
FTUS43 KDMX 051134
TAFALO
TAF
KALO 051134Z 0512/0612 11010KT 5SM -RA BR OVC007
     FM051600 11010KT P6SM VCSH SCT007 BKN015 OVC090
     FM052000 12007KT P6SM SCT030 BKN100
     FM060300 12008KT 5SM BR SCT007 BKN150=

USA.gov is the U.S. government's official web portal to all federal, state and local government web resources and services.